Time;durP1;ratioP1;P1;durP2;ratioP2;P2;SDS_P1;SDS_P2;PMS_P1;PMS_P2;Temp;Humidity;BMP_temperature;BMP_pressure;BME280_temperature;BME280_humidity;BME280_pressure;Samples;Min_cycle;Max_cycle;Signal;HPM_P1;HPM_P2
2021/09/21 00:01:28;;;;;;;3.10;2.83;;;;;;;;;;10321930;28;20084;-54
2021/09/21 00:06:26;;;;;;;3.75;3.45;;;;;;;;;;10322544;28;20421;-56
2021/09/21 00:11:24;;;;;;;3.30;2.95;;;;;;;;;;10321632;28;20057;-55
2021/09/21 00:16:25;;;;;;;3.80;3.50;;;;;;;;;;10321355;28;20428;-56
2021/09/21 00:21:23;;;;;;;6.47;4.35;;;;;;;;;;10321313;28;20182;-54
2021/09/21 00:26:21;;;;;;;4.25;3.75;;;;;;;;;;10320686;28;20059;-56
2021/09/21 00:31:21;;;;;;;4.55;3.63;;;;;;;;;;10319982;28;20068;-56
2021/09/21 00:36:21;;;;;;;4.43;4.03;;;;;;;;;;10319344;28;20052;-55
2021/09/21 00:41:19;;;;;;;3.65;3.35;;;;;;;;;;10320165;28;20080;-57
2021/09/21 00:46:17;;;;;;;4.10;3.28;;;;;;;;;;10320528;28;20064;-56
2021/09/21 00:51:16;;;;;;;4.15;3.75;;;;;;;;;;10319443;28;20049;-55
2021/09/21 00:56:16;;;;;;;6.38;4.13;;;;;;;;;;10320128;28;20087;-55
2021/09/21 01:01:14;;;;;;;5.47;5.00;;;;;;;;;;10320200;28;20525;-56
2021/09/21 01:06:13;;;;;;;4.80;4.20;;;;;;;;;;10319145;28;20079;-54
2021/09/21 01:11:12;;;;;;;5.50;3.55;;;;;;;;;;10319124;28;20071;-55
2021/09/21 01:16:12;;;;;;;8.90;4.18;;;;;;;;;;10319334;28;20067;-55
2021/09/21 01:21:12;;;;;;;4.85;3.40;;;;;;;;;;10319453;28;20077;-56
2021/09/21 01:26:11;;;;;;;3.80;3.08;;;;;;;;;;10319194;28;20047;-54
2021/09/21 01:31:10;;;;;;;3.30;3.00;;;;;;;;;;10318358;28;20055;-55
2021/09/21 01:36:08;;;;;;;5.07;3.50;;;;;;;;;;10318636;28;20068;-57
2021/09/21 01:41:06;;;;;;;3.58;3.28;;;;;;;;;;10317395;28;20083;-65
2021/09/21 01:46:06;;;;;;;5.10;3.63;;;;;;;;;;10317311;28;20548;-53
2021/09/21 01:51:06;;;;;;;4.00;3.65;;;;;;;;;;10318179;28;20059;-55
2021/09/21 02:01:24;;;;;;;4.68;3.58;;;;;;;;;;10316954;28;20084;-57
2021/09/21 02:06:27;;;;;;;4.60;2.95;;;;;;;;;;10317204;28;20048;-54
2021/09/21 02:11:26;;;;;;;3.20;3.00;;;;;;;;;;10317617;28;20044;-54
2021/09/21 02:16:25;;;;;;;3.47;3.17;;;;;;;;;;10316689;28;20048;-56
2021/09/21 02:21:24;;;;;;;3.78;3.30;;;;;;;;;;10317315;28;20048;-55
2021/09/21 02:26:22;;;;;;;5.78;3.92;;;;;;;;;;10317232;28;20078;-54
2021/09/21 02:31:21;;;;;;;6.63;3.70;;;;;;;;;;10316442;28;20059;-55
2021/09/21 02:36:21;;;;;;;5.47;3.97;;;;;;;;;;10316976;28;20414;-57
2021/09/21 02:41:19;;;;;;;6.55;3.80;;;;;;;;;;10316877;28;20041;-55
2021/09/21 02:46:17;;;;;;;4.63;4.07;;;;;;;;;;10315067;28;20126;-55
2021/09/21 02:51:15;;;;;;;4.03;3.63;;;;;;;;;;10316644;28;20048;-53
2021/09/21 02:56:15;;;;;;;4.75;4.30;;;;;;;;;;10315894;28;20069;-56
2021/09/21 03:01:14;;;;;;;4.45;4.05;;;;;;;;;;10316617;28;20048;-54
2021/09/21 03:06:21;;;;;;;6.22;5.63;;;;;;;;;;10320020;28;20076;-54
2021/09/21 03:11:21;;;;;;;5.78;5.28;;;;;;;;;;10324917;28;20048;-54
2021/09/21 03:21:36;;;;;;;5.65;4.60;;;;;;;;;;10323418;28;20265;-55
2021/09/21 03:26:35;;;;;;;5.55;5.05;;;;;;;;;;10324060;28;20040;-56
2021/09/21 03:31:34;;;;;;;7.57;5.20;;;;;;;;;;10323122;28;20083;-56
2021/09/21 03:36:32;;;;;;;5.90;5.30;;;;;;;;;;10323923;28;20075;-55
2021/09/21 03:41:30;;;;;;;6.10;5.47;;;;;;;;;;10322857;28;20076;-54
2021/09/21 03:46:30;;;;;;;6.43;4.85;;;;;;;;;;10322761;28;20087;-56
2021/09/21 03:51:28;;;;;;;5.97;5.38;;;;;;;;;;10323197;28;20045;-55
2021/09/21 03:56:27;;;;;;;6.40;4.85;;;;;;;;;;10321825;28;20044;-55
2021/09/21 04:01:25;;;;;;;5.57;4.72;;;;;;;;;;10321161;28;20132;-55
2021/09/21 04:06:25;;;;;;;4.18;3.78;;;;;;;;;;10321333;28;20072;-55
2021/09/21 04:11:23;;;;;;;4.93;4.35;;;;;;;;;;10320636;28;20532;-56
2021/09/21 04:16:22;;;;;;;4.35;3.95;;;;;;;;;;10321493;28;20045;-54
2021/09/21 04:21:20;;;;;;;4.72;4.32;;;;;;;;;;10321891;28;20037;-52
2021/09/21 04:26:20;;;;;;;5.18;4.25;;;;;;;;;;10320637;28;20072;-53
2021/09/21 04:31:21;;;;;;;3.78;3.47;;;;;;;;;;10321020;28;20494;-54
2021/09/21 04:36:20;;;;;;;3.85;3.55;;;;;;;;;;10319981;28;20402;-56
2021/09/21 04:41:19;;;;;;;3.78;3.25;;;;;;;;;;10321308;28;20041;-54
2021/09/21 04:46:18;;;;;;;4.00;3.63;;;;;;;;;;10319824;28;20076;-54
2021/09/21 04:51:16;;;;;;;3.72;3.03;;;;;;;;;;10319902;28;20190;-55
2021/09/21 04:56:14;;;;;;;3.25;2.97;;;;;;;;;;10319811;28;20531;-55
2021/09/21 05:01:14;;;;;;;8.13;6.85;;;;;;;;;;10318648;28;20060;-54
2021/09/21 05:06:13;;;;;;;13.38;8.55;;;;;;;;;;10315646;28;20071;-55
2021/09/21 05:11:11;;;;;;;3.65;2.78;;;;;;;;;;10315958;28;20461;-56
2021/09/21 05:16:10;;;;;;;2.67;2.47;;;;;;;;;;10316724;28;20079;-54
2021/09/21 05:21:09;;;;;;;2.63;2.25;;;;;;;;;;10301051;28;20629;-51
2021/09/21 05:26:08;;;;;;;2.40;2.20;;;;;;;;;;10318538;28;20091;-56
2021/09/21 05:31:06;;;;;;;5.25;1.90;;;;;;;;;;10318213;28;20437;-54
2021/09/21 05:36:05;;;;;;;5.10;4.30;;;;;;;;;;10318315;28;20053;-57
2021/09/21 05:41:05;;;;;;;4.65;4.15;;;;;;;;;;10318288;28;20045;-50
2021/09/21 05:46:03;;;;;;;2.58;2.13;;;;;;;;;;10274118;28;20095;-56
2021/09/21 05:51:01;;;;;;;1.60;1.50;;;;;;;;;;10273029;28;20091;-57
2021/09/21 05:55:59;;;;;;;6.45;5.82;;;;;;;;;;10274417;28;20076;-58
2021/09/21 06:00:59;;;;;;;6.40;4.93;;;;;;;;;;10276785;28;20067;-58
2021/09/21 06:05:58;;;;;;;3.97;3.10;;;;;;;;;;10277382;28;20076;-54
2021/09/21 06:10:57;;;;;;;3.75;2.28;;;;;;;;;;10276240;28;20080;-56
2021/09/21 06:15:55;;;;;;;2.30;2.10;;;;;;;;;;10276972;28;20521;-57
2021/09/21 06:20:55;;;;;;;3.22;2.40;;;;;;;;;;10276841;28;20418;-55
2021/09/21 06:25:53;;;;;;;2.65;2.10;;;;;;;;;;10276110;28;20079;-55
2021/09/21 06:30:51;;;;;;;2.40;2.20;;;;;;;;;;10275401;28;20406;-56
2021/09/21 06:35:50;;;;;;;3.08;2.78;;;;;;;;;;10275518;28;20091;-55
2021/09/21 06:40:49;;;;;;;2.40;2.20;;;;;;;;;;10275821;28;20044;-56
2021/09/21 06:45:48;;;;;;;7.15;5.90;;;;;;;;;;10275200;28;20080;-55
2021/09/21 06:50:46;;;;;;;16.08;12.23;;;;;;;;;;10274848;28;20056;-57
2021/09/21 06:55:44;;;;;;;4.45;4.05;;;;;;;;;;10274915;28;20048;-54
2021/09/21 07:00:45;;;;;;;2.42;2.22;;;;;;;;;;10274585;28;20079;-56
2021/09/21 07:05:44;;;;;;;2.40;2.20;;;;;;;;;;10275652;28;20568;-55
2021/09/21 07:10:42;;;;;;;3.38;2.20;;;;;;;;;;10275498;28;20053;-54
2021/09/21 07:15:40;;;;;;;4.32;2.13;;;;;;;;;;10275420;28;20045;-55
2021/09/21 07:20:44;;;;;;;3.88;2.00;;;;;;;;;;10275412;28;20045;-55
2021/09/21 07:25:42;;;;;;;12.32;2.50;;;;;;;;;;10275127;28;20501;-54
2021/09/21 07:30:41;;;;;;;2.78;2.03;;;;;;;;;;10274257;28;20100;-59
2021/09/21 07:35:39;;;;;;;2.47;2.20;;;;;;;;;;10274578;28;20056;-55
2021/09/21 07:40:39;;;;;;;5.55;2.95;;;;;;;;;;10275039;28;20037;-55
2021/09/21 07:45:37;;;;;;;5.53;2.78;;;;;;;;;;10274115;28;20061;-55
2021/09/21 07:50:36;;;;;;;4.80;3.35;;;;;;;;;;10274884;28;20068;-55
2021/09/21 07:55:35;;;;;;;3.40;2.75;;;;;;;;;;10280604;28;20057;-56
2021/09/21 08:00:34;;;;;;;4.93;3.55;;;;;;;;;;10282124;28;20044;-55
2021/09/21 08:05:34;;;;;;;4.40;3.47;;;;;;;;;;10282018;28;20072;-54
2021/09/21 08:10:33;;;;;;;8.40;3.33;;;;;;;;;;10281173;28;20045;-55
2021/09/21 08:15:31;;;;;;;4.20;2.83;;;;;;;;;;10280695;28;20053;-54
2021/09/21 08:20:31;;;;;;;27.15;21.52;;;;;;;;;;10280380;28;20091;-55
2021/09/21 08:25:31;;;;;;;9.32;7.07;;;;;;;;;;10281215;28;20073;-56
2021/09/21 08:30:30;;;;;;;2.97;2.58;;;;;;;;;;10280877;28;20045;-56
2021/09/21 08:35:29;;;;;;;3.67;2.80;;;;;;;;;;10278896;28;20456;-54
2021/09/21 08:40:30;;;;;;;2.78;2.58;;;;;;;;;;10280347;28;20072;-55
2021/09/21 08:45:29;;;;;;;6.57;5.00;;;;;;;;;;10279531;28;20092;-55
2021/09/21 08:50:27;;;;;;;23.52;20.60;;;;;;;;;;10278573;28;20086;-55
2021/09/21 08:55:26;;;;;;;4.95;3.30;;;;;;;;;;10278426;28;20435;-55
2021/09/21 09:00:28;;;;;;;2.35;2.15;;;;;;;;;;10279833;28;20036;-55
2021/09/21 09:05:27;;;;;;;2.83;2.50;;;;;;;;;;10279436;28;20080;-52
2021/09/21 09:10:25;;;;;;;2.63;2.13;;;;;;;;;;10279457;28;20036;-55
2021/09/21 09:15:26;;;;;;;3.70;2.75;;;;;;;;;;10278683;28;20057;-55
2021/09/21 09:20:36;;;;;;;4.28;3.53;;;;;;;;;;10279107;28;20474;-52
2021/09/21 09:25:40;;;;;;;2.63;2.42;;;;;;;;;;10277989;28;20643;-55
2021/09/21 09:30:39;;;;;;;3.37;3.07;;;;;;;;;;10278017;28;20049;-57
2021/09/21 09:35:39;;;;;;;3.72;3.30;;;;;;;;;;10277641;28;20084;-55
2021/09/21 09:40:39;;;;;;;3.15;2.85;;;;;;;;;;10277680;28;20082;-56
2021/09/21 09:45:39;;;;;;;3.50;3.10;;;;;;;;;;10276780;28;20084;-55
2021/09/21 09:50:42;;;;;;;4.35;3.95;;;;;;;;;;10276768;28;20045;-53
2021/09/21 09:55:41;;;;;;;5.88;4.25;;;;;;;;;;10259756;28;20529;-52
2021/09/21 10:00:40;;;;;;;7.85;7.00;;;;;;;;;;10276158;28;20502;-56
2021/09/21 10:05:41;;;;;;;9.60;7.18;;;;;;;;;;10277594;28;20446;-55
2021/09/21 10:10:40;;;;;;;11.80;7.72;;;;;;;;;;10276372;28;20080;-55
2021/09/21 10:15:39;;;;;;;9.20;8.27;;;;;;;;;;10276442;28;20040;-54
2021/09/21 10:20:39;;;;;;;12.38;11.18;;;;;;;;;;10275618;28;20045;-54
2021/09/21 10:25:40;;;;;;;14.18;12.98;;;;;;;;;;10275619;28;20080;-56
2021/09/21 10:30:53;;;;;;;9.50;8.57;;;;;;;;;;10276656;28;20497;-57
2021/09/21 10:35:52;;;;;;;9.57;8.60;;;;;;;;;;10275663;28;20052;-54
2021/09/21 10:40:53;;;;;;;11.00;9.13;;;;;;;;;;10276150;28;20045;-55
2021/09/21 10:45:52;;;;;;;10.88;9.82;;;;;;;;;;10275753;28;20088;-56
2021/09/21 10:50:54;;;;;;;11.80;10.65;;;;;;;;;;10274893;28;20052;-55
2021/09/21 10:56:00;;;;;;;11.60;10.50;;;;;;;;;;10275885;28;20053;-55
2021/09/21 11:00:59;;;;;;;13.77;10.98;;;;;;;;;;10275907;28;20048;-55
2021/09/21 11:05:57;;;;;;;11.40;10.30;;;;;;;;;;10275172;28;20092;-57
2021/09/21 11:10:59;;;;;;;13.15;11.80;;;;;;;;;;10275561;28;20041;-57
2021/09/21 11:16:00;;;;;;;14.02;11.30;;;;;;;;;;10275545;28;20052;-56
2021/09/21 11:21:00;;;;;;;13.85;12.45;;;;;;;;;;10275503;28;20045;-56
2021/09/21 11:25:59;;;;;;;12.27;11.18;;;;;;;;;;10276668;28;20525;-57
2021/09/21 11:30:59;;;;;;;13.27;11.50;;;;;;;;;;10283626;28;20044;-56
2021/09/21 11:35:59;;;;;;;12.73;11.48;;;;;;;;;;10283319;28;20446;-56
2021/09/21 11:40:58;;;;;;;13.90;12.60;;;;;;;;;;10283190;28;20041;-57
2021/09/21 11:45:57;;;;;;;13.88;11.77;;;;;;;;;;10281454;28;20725;-55
2021/09/21 11:50:57;;;;;;;14.88;12.85;;;;;;;;;;10282042;28;20156;-57
2021/09/21 11:55:56;;;;;;;12.02;10.93;;;;;;;;;;10281496;28;20473;-55
2021/09/21 12:00:56;;;;;;;16.23;12.45;;;;;;;;;;10281224;28;20498;-57
2021/09/21 12:05:56;;;;;;;14.05;12.63;;;;;;;;;;10282147;28;20086;-57
2021/09/21 12:10:57;;;;;;;14.15;12.65;;;;;;;;;;10280978;28;20041;-55
2021/09/21 12:15:57;;;;;;;15.48;12.45;;;;;;;;;;10280650;28;20399;-56
2021/09/21 12:20:56;;;;;;;14.15;12.80;;;;;;;;;;10280621;28;20045;-57
2021/09/21 12:25:57;;;;;;;17.25;15.52;;;;;;;;;;10280086;28;20080;-56
2021/09/21 12:30:55;;;;;;;15.02;13.43;;;;;;;;;;10280291;28;20111;-57
2021/09/21 12:35:54;;;;;;;13.45;12.25;;;;;;;;;;10279894;28;20381;-56
2021/09/21 12:40:54;;;;;;;13.88;12.57;;;;;;;;;;10279097;28;20045;-57
2021/09/21 12:45:54;;;;;;;13.88;12.30;;;;;;;;;;10279197;28;20095;-56
2021/09/21 12:50:54;;;;;;;13.95;12.30;;;;;;;;;;10279279;28;20057;-56
2021/09/21 12:55:54;;;;;;;13.27;12.07;;;;;;;;;;10280109;28;20071;-56
2021/09/21 13:00:53;;;;;;;14.43;11.77;;;;;;;;;;10279963;28;20391;-57
2021/09/21 13:05:52;;;;;;;13.23;11.43;;;;;;;;;;10279734;28;20084;-56
2021/09/21 13:10:50;;;;;;;12.73;10.30;;;;;;;;;;10279103;28;20423;-58
2021/09/21 13:15:48;;;;;;;13.00;10.10;;;;;;;;;;10279438;28;20524;-56
2021/09/21 13:20:48;;;;;;;11.05;9.93;;;;;;;;;;10279229;28;20438;-56
2021/09/21 13:25:47;;;;;;;9.77;8.88;;;;;;;;;;10278971;28;20073;-56
2021/09/21 13:30:49;;;;;;;10.20;9.20;;;;;;;;;;10278773;28;20494;-57
2021/09/21 13:35:50;;;;;;;8.90;8.10;;;;;;;;;;10278070;28;20052;-57
2021/09/21 13:40:48;;;;;;;11.55;9.13;;;;;;;;;;10277219;28;20410;-57
2021/09/21 13:45:46;;;;;;;10.50;8.98;;;;;;;;;;10276888;28;20085;-57
2021/09/21 13:50:45;;;;;;;9.13;8.23;;;;;;;;;;10275975;28;20056;-57
2021/09/21 13:55:45;;;;;;;12.85;8.57;;;;;;;;;;10276798;28;20045;-56
2021/09/21 14:00:43;;;;;;;8.70;7.80;;;;;;;;;;10276984;28;20045;-57
2021/09/21 14:05:42;;;;;;;9.23;7.78;;;;;;;;;;10276782;28;20506;-57
2021/09/21 14:10:40;;;;;;;9.50;8.52;;;;;;;;;;10276274;28;20101;-56
2021/09/21 14:15:39;;;;;;;7.22;6.45;;;;;;;;;;10277045;28;20083;-57
2021/09/21 14:20:38;;;;;;;9.07;8.25;;;;;;;;;;10276619;28;20048;-57
2021/09/21 14:25:36;;;;;;;7.38;6.68;;;;;;;;;;10276587;28;20544;-57
2021/09/21 14:30:35;;;;;;;8.85;7.20;;;;;;;;;;10276681;28;20041;-57
2021/09/21 14:35:36;;;;;;;11.85;9.60;;;;;;;;;;10276467;28;20040;-57
2021/09/21 14:40:35;;;;;;;16.73;15.13;;;;;;;;;;10275830;28;20041;-57
2021/09/21 14:45:34;;;;;;;12.40;11.10;;;;;;;;;;10275594;28;20048;-57
2021/09/21 14:50:32;;;;;;;11.77;10.50;;;;;;;;;;10275312;28;20088;-56
2021/09/21 14:55:33;;;;;;;15.02;10.48;;;;;;;;;;10274334;28;20048;-57
2021/09/21 15:00:32;;;;;;;11.45;9.15;;;;;;;;;;10275049;28;20068;-57
2021/09/21 15:05:30;;;;;;;12.07;10.25;;;;;;;;;;10275077;28;20077;-57
2021/09/21 15:10:29;;;;;;;10.55;9.52;;;;;;;;;;10274882;28;20092;-56
2021/09/21 15:15:29;;;;;;;9.88;8.77;;;;;;;;;;10275427;28;20037;-57
2021/09/21 15:20:27;;;;;;;9.18;7.90;;;;;;;;;;10275392;28;20065;-57
2021/09/21 15:25:27;;;;;;;8.23;7.43;;;;;;;;;;10275290;28;20045;-57
2021/09/21 15:30:25;;;;;;;11.40;7.82;;;;;;;;;;10274685;28;20083;-56
2021/09/21 15:35:25;;;;;;;8.68;7.88;;;;;;;;;;10274321;28;20083;-57
2021/09/21 15:40:24;;;;;;;11.40;6.78;;;;;;;;;;10274861;28;20048;-57
2021/09/21 15:45:22;;;;;;;9.02;8.23;;;;;;;;;;10274357;28;20052;-58
2021/09/21 15:50:21;;;;;;;12.40;8.75;;;;;;;;;;10274493;28;20079;-56
2021/09/21 15:55:21;;;;;;;9.38;8.32;;;;;;;;;;10273773;28;20072;-57
2021/09/21 16:00:21;;;;;;;9.52;8.00;;;;;;;;;;10274758;28;20040;-57
2021/09/21 16:05:20;;;;;;;9.82;7.95;;;;;;;;;;10273733;28;20045;-56
2021/09/21 16:10:18;;;;;;;9.10;8.18;;;;;;;;;;10273838;28;20073;-56
2021/09/21 16:15:20;;;;;;;10.30;7.43;;;;;;;;;;10277912;28;20052;-57
2021/09/21 16:20:18;;;;;;;12.63;9.25;;;;;;;;;;10280221;28;20052;-54
2021/09/21 16:25:17;;;;;;;18.50;9.05;;;;;;;;;;10281370;28;20434;-56
2021/09/21 16:30:17;;;;;;;13.90;9.40;;;;;;;;;;10280379;28;20080;-52
2021/09/21 16:35:18;;;;;;;10.43;9.15;;;;;;;;;;10280688;28;20060;-56
2021/09/21 16:40:17;;;;;;;12.65;9.20;;;;;;;;;;10280757;28;20037;-56
2021/09/21 16:45:15;;;;;;;10.95;8.55;;;;;;;;;;10279900;28;20060;-54
2021/09/21 16:50:13;;;;;;;11.13;7.57;;;;;;;;;;10279205;28;20091;-54
2021/09/21 16:55:14;;;;;;;8.98;7.65;;;;;;;;;;10279944;28;20080;-55
2021/09/21 17:00:19;;;;;;;11.80;8.35;;;;;;;;;;10279676;28;20095;-56
2021/09/21 17:05:20;;;;;;;8.02;7.20;;;;;;;;;;10279135;28;20045;-54
2021/09/21 17:10:20;;;;;;;9.90;8.48;;;;;;;;;;10279279;28;20081;-56
2021/09/21 17:15:19;;;;;;;11.93;7.80;;;;;;;;;;10278976;28;20076;-54
2021/09/21 17:20:17;;;;;;;7.72;6.93;;;;;;;;;;10279147;28;20068;-56
2021/09/21 17:25:16;;;;;;;6.20;5.68;;;;;;;;;;10278651;28;20552;-56
2021/09/21 17:30:15;;;;;;;6.28;5.35;;;;;;;;;;10277954;28;20091;-55
2021/09/21 17:35:14;;;;;;;5.85;5.25;;;;;;;;;;10278605;28;20052;-55
2021/09/21 17:40:14;;;;;;;6.35;5.78;;;;;;;;;;10277424;28;20049;-55
2021/09/21 17:45:14;;;;;;;6.60;5.70;;;;;;;;;;10277064;28;20064;-55
2021/09/21 17:50:17;;;;;;;6.72;6.03;;;;;;;;;;10277230;28;20084;-54
2021/09/21 17:55:16;;;;;;;6.97;6.28;;;;;;;;;;10276889;28;20516;-55
2021/09/21 18:00:15;;;;;;;8.85;6.82;;;;;;;;;;10276044;28;20044;-54
2021/09/21 18:05:15;;;;;;;8.90;8.00;;;;;;;;;;10276793;28;20045;-54
2021/09/21 18:10:13;;;;;;;7.35;6.53;;;;;;;;;;10276641;28;20098;-55
2021/09/21 18:15:12;;;;;;;10.73;7.28;;;;;;;;;;10275447;28;20041;-54
2021/09/21 18:20:53;;;;;;;8.25;6.82;;;;;;;;;;10275555;28;20107;-52
2021/09/21 18:25:53;;;;;;;11.48;7.90;;;;;;;;;;10276621;28;20045;-55
2021/09/21 18:30:52;;;;;;;9.70;7.20;;;;;;;;;;10276293;28;20079;-51
2021/09/21 18:35:53;;;;;;;8.77;7.97;;;;;;;;;;10275163;28;20041;-53
2021/09/21 18:40:53;;;;;;;8.43;7.50;;;;;;;;;;10275827;28;20081;-55
2021/09/21 18:45:52;;;;;;;10.60;7.90;;;;;;;;;;10274739;28;20053;-47
2021/09/21 18:50:53;;;;;;;9.85;8.65;;;;;;;;;;10286150;28;20467;-51
2021/09/21 18:55:52;;;;;;;11.77;9.73;;;;;;;;;;10315263;28;20118;-51
2021/09/21 19:00:50;;;;;;;8.85;7.95;;;;;;;;;;10315382;28;20040;-56
2021/09/21 19:05:49;;;;;;;13.23;8.85;;;;;;;;;;10316465;28;20071;-52
2021/09/21 19:10:48;;;;;;;10.25;8.82;;;;;;;;;;10316209;28;20083;-54
2021/09/21 19:15:48;;;;;;;9.77;8.32;;;;;;;;;;10315069;28;20059;-54
2021/09/21 19:20:46;;;;;;;10.30;8.55;;;;;;;;;;10315318;28;20079;-52
2021/09/21 19:25:46;;;;;;;13.95;9.90;;;;;;;;;;10313624;28;20607;-54
2021/09/21 19:30:47;;;;;;;11.13;9.95;;;;;;;;;;10312583;28;20244;-54
2021/09/21 19:35:47;;;;;;;15.43;11.63;;;;;;;;;;10312011;28;20068;-52
2021/09/21 19:40:48;;;;;;;13.43;11.48;;;;;;;;;;10312201;28;20068;-53
2021/09/21 19:45:49;;;;;;;12.45;11.23;;;;;;;;;;10311539;28;20087;-52
2021/09/21 19:50:49;;;;;;;13.55;11.70;;;;;;;;;;10318162;28;20075;-53
2021/09/21 19:55:47;;;;;;;14.65;11.63;;;;;;;;;;10320043;28;20041;-52
2021/09/21 20:00:45;;;;;;;14.27;11.07;;;;;;;;;;10322272;28;20040;-54
2021/09/21 20:05:47;;;;;;;12.10;10.90;;;;;;;;;;10322024;28;20044;-55
2021/09/21 20:10:45;;;;;;;14.68;11.98;;;;;;;;;;10322380;28;20079;-55
2021/09/21 20:15:44;;;;;;;15.68;12.63;;;;;;;;;;10322766;28;20037;-54
2021/09/21 20:20:42;;;;;;;13.80;12.48;;;;;;;;;;10322220;28;20044;-56
2021/09/21 20:25:42;;;;;;;14.48;13.07;;;;;;;;;;10322101;28;20036;-55
2021/09/21 20:30:41;;;;;;;14.38;12.95;;;;;;;;;;10302561;28;20059;-53
2021/09/21 20:35:48;;;;;;;17.63;14.27;;;;;;;;;;10320688;28;20052;-53
2021/09/21 20:40:49;;;;;;;15.93;14.38;;;;;;;;;;10321818;28;20076;-53
2021/09/21 20:45:48;;;;;;;17.15;15.35;;;;;;;;;;10320208;28;20079;-53
2021/09/21 20:50:46;;;;;;;17.95;15.15;;;;;;;;;;10321122;28;20485;-51
2021/09/21 20:55:45;;;;;;;15.07;13.57;;;;;;;;;;10320654;28;20410;-50
2021/09/21 21:00:44;;;;;;;15.77;13.10;;;;;;;;;;10318579;28;20106;-52
2021/09/21 21:05:43;;;;;;;14.60;12.88;;;;;;;;;;10318798;28;20080;-51
2021/09/21 21:10:42;;;;;;;15.38;13.75;;;;;;;;;;10319589;28;20084;-55
2021/09/21 21:15:40;;;;;;;13.45;12.10;;;;;;;;;;10320048;28;20041;-53
2021/09/21 21:20:40;;;;;;;13.98;12.50;;;;;;;;;;10319322;28;20049;-54
2021/09/21 21:25:38;;;;;;;14.07;12.63;;;;;;;;;;10319748;28;20039;-54
2021/09/21 21:30:37;;;;;;;17.05;13.10;;;;;;;;;;10319525;28;20490;-54
2021/09/21 21:35:37;;;;;;;13.75;12.27;;;;;;;;;;10317867;28;20044;-54
2021/09/21 21:40:37;;;;;;;12.77;11.38;;;;;;;;;;10319056;28;20517;-54
2021/09/21 21:45:36;;;;;;;15.13;13.13;;;;;;;;;;10318389;28;20059;-53
2021/09/21 21:50:35;;;;;;;11.32;10.23;;;;;;;;;;10317891;28;20076;-53
2021/09/21 21:55:34;;;;;;;11.02;9.93;;;;;;;;;;10299960;28;20051;-55
2021/09/21 22:00:38;;;;;;;12.45;11.13;;;;;;;;;;10317430;28;20041;-54
2021/09/21 22:05:36;;;;;;;11.60;10.50;;;;;;;;;;10318245;28;20080;-54
2021/09/21 22:10:35;;;;;;;11.90;10.70;;;;;;;;;;10315103;28;20084;-54
2021/09/21 22:15:33;;;;;;;11.43;10.23;;;;;;;;;;10316964;28;20412;-54
2021/09/21 22:20:36;;;;;;;11.82;10.25;;;;;;;;;;10317443;28;20051;-53
2021/09/21 22:25:34;;;;;;;11.07;9.95;;;;;;;;;;10316305;28;20083;-55
2021/09/21 22:30:33;;;;;;;12.25;9.82;;;;;;;;;;10317031;28;20509;-55
2021/09/21 22:35:33;;;;;;;10.98;9.55;;;;;;;;;;10316136;28;20053;-54
2021/09/21 22:40:32;;;;;;;12.43;9.95;;;;;;;;;;10316002;28;20068;-53
2021/09/21 22:45:31;;;;;;;11.13;10.02;;;;;;;;;;10315841;28;20103;-54
2021/09/21 22:50:29;;;;;;;10.77;9.48;;;;;;;;;;10315965;28;20087;-54
2021/09/21 22:55:29;;;;;;;10.45;9.45;;;;;;;;;;10315844;28;20059;-52
2021/09/21 23:00:28;;;;;;;13.05;11.75;;;;;;;;;;10316305;28;20071;-54
2021/09/21 23:05:26;;;;;;;13.70;12.30;;;;;;;;;;10315982;28;20072;-54
2021/09/21 23:10:26;;;;;;;17.42;11.45;;;;;;;;;;10316286;28;20072;-54
2021/09/21 23:15:27;;;;;;;14.80;13.30;;;;;;;;;;10315604;28;20052;-54
2021/09/21 23:20:26;;;;;;;13.68;12.27;;;;;;;;;;10315722;28;20517;-54
2021/09/21 23:25:24;;;;;;;13.60;12.20;;;;;;;;;;10322580;28;20063;-52
2021/09/21 23:30:23;;;;;;;16.35;14.68;;;;;;;;;;10323590;28;20471;-56
2021/09/21 23:35:22;;;;;;;17.02;12.77;;;;;;;;;;10323168;28;20457;-55
2021/09/21 23:40:21;;;;;;;15.00;13.40;;;;;;;;;;10321291;28;20045;-54
2021/09/21 23:45:19;;;;;;;14.95;13.35;;;;;;;;;;10320106;28;20053;-54
2021/09/21 23:50:18;;;;;;;14.32;12.70;;;;;;;;;;10318394;28;20155;-54
2021/09/21 23:55:21;;;;;;;16.10;14.18;;;;;;;;;;10320444;28;20106;-55
